フォルタレザ の空港の天気 - METARとTAF

フォルタレザ/ピント・マーティンズ国際空港 ( SBFZ / FOR ) - ブラジル セアラー州フォルタレザ
飛行場実況気象(Metar)
観測時間05/28 21:00 BRT (05/29 00:00 UTC)
風向・風速南 3m/s
視程10km以上
天気現象
全天の4割程度の雲 雲底高度 610m
気温24℃
湿度100%
気圧1013hPa
METARSBFZ 290000Z 19005KT 9999 SCT020 24/24 Q1013
過去の天気等 Google飛行場航空写真 Wunderground天気予報

過去48時間のMETAR

飛行場予報(TAF)
発表時間: 5/28 18:00 BRT (5/28 21:00 UTC)
予報対象時間: 28日21時 BRT ~ 29日21時 BRT
風向・風速南 3m/s
視程4500m
天気現象
全天の8割程度の雲 雲底高度 460m
少しの塔状積雲 雲底高度 910m
28日21時 BRT から 確率 40% で
視程4000m
天気現象雷雨
全天の8割程度の雲 雲底高度 520m
少しの積乱雲 雲底高度 760m
29日8時 BRT ~ 29日10時 BRT に徐々に
風向・風速南南東 8m/s
全天の8割程度の雲 雲底高度 610m
少しの塔状積雲 雲底高度 760m
29日15時 BRT から 確率 40% で
視程4000m
天気現象雷雨
全天の8割程度の雲 雲底高度 520m
少しの積乱雲 雲底高度 760m
TAF SBFZ 282100Z 2900/2924 19005KT 4500 RA BKN015 FEW030TCU TN24/2908Z TX27/2918Z
PROB40 2900/2902 4000 TSRA BKN017 FEW025CB
BECMG 2911/2913 16015KT BKN020 FEW025TCU
PROB40 2918/2922 4000 TSRA BKN017 FEW025CB RMK PGU